sensor_id;sensor_type;location;lat;lon;timestamp;P1;durP1;ratioP1;P2;durP2;ratioP2
55222;SDS011;41090;48.632;12.428;2024-01-15T02:14:55;37.63;;;22.63;;
55222;SDS011;41090;48.632;12.428;2024-01-15T02:17:26;35.00;;;22.23;;
55222;SDS011;41090;48.632;12.428;2024-01-15T02:19:51;42.40;;;22.70;;
55222;SDS011;41090;48.632;12.428;2024-01-15T02:25:25;40.00;;;23.73;;
55222;SDS011;41090;48.632;12.428;2024-01-15T02:27:51;38.53;;;21.83;;
55222;SDS011;41090;48.632;12.428;2024-01-15T02:30:16;40.80;;;23.23;;
55222;SDS011;41090;48.632;12.428;2024-01-15T02:32:42;38.90;;;22.87;;
55222;SDS011;41090;48.632;12.428;2024-01-15T02:35:07;38.37;;;21.97;;
55222;SDS011;41090;48.632;12.428;2024-01-15T02:37:35;36.60;;;21.03;;
55222;SDS011;41090;48.632;12.428;2024-01-15T02:40:00;36.43;;;20.90;;
55222;SDS011;41090;48.632;12.428;2024-01-15T02:42:26;37.27;;;21.93;;
55222;SDS011;41090;48.632;12.428;2024-01-15T02:44:51;36.83;;;20.20;;
55222;SDS011;41090;48.632;12.428;2024-01-15T02:47:16;36.03;;;21.63;;
55222;SDS011;41090;48.632;12.428;2024-01-15T02:49:41;37.03;;;21.37;;
55222;SDS011;41090;48.632;12.428;2024-01-15T02:52:07;35.73;;;21.10;;
55222;SDS011;41090;48.632;12.428;2024-01-15T02:54:32;32.33;;;19.60;;
55222;SDS011;41090;48.632;12.428;2024-01-15T02:56:57;38.07;;;21.60;;
55222;SDS011;41090;48.632;12.428;2024-01-15T02:59:22;36.57;;;21.20;;
55222;SDS011;41090;48.632;12.428;2024-01-15T03:01:48;33.97;;;19.83;;
55222;SDS011;41090;48.632;12.428;2024-01-15T03:04:13;36.63;;;20.73;;
55222;SDS011;41090;48.632;12.428;2024-01-15T03:06:38;34.43;;;19.90;;
55222;SDS011;41090;48.632;12.428;2024-01-15T03:09:03;33.47;;;19.53;;
55222;SDS011;41090;48.632;12.428;2024-01-15T03:11:36;34.93;;;19.07;;
55222;SDS011;41090;48.632;12.428;2024-01-15T03:14:01;33.67;;;19.93;;
55222;SDS011;41090;48.632;12.428;2024-01-15T03:16:26;34.87;;;19.50;;
55222;SDS011;41090;48.632;12.428;2024-01-15T03:18:52;36.07;;;19.60;;
55222;SDS011;41090;48.632;12.428;2024-01-15T03:21:17;38.10;;;20.73;;
55222;SDS011;41090;48.632;12.428;2024-01-15T03:23:43;35.13;;;19.33;;
55222;SDS011;41090;48.632;12.428;2024-01-15T03:26:09;37.13;;;20.87;;
55222;SDS011;41090;48.632;12.428;2024-01-15T03:28:34;33.17;;;19.17;;
55222;SDS011;41090;48.632;12.428;2024-01-15T03:30:59;33.63;;;18.90;;
55222;SDS011;41090;48.632;12.428;2024-01-15T03:33:24;34.03;;;18.60;;
55222;SDS011;41090;48.632;12.428;2024-01-15T03:35:50;34.23;;;19.20;;
55222;SDS011;41090;48.632;12.428;2024-01-15T03:38:15;33.97;;;18.60;;
55222;SDS011;41090;48.632;12.428;2024-01-15T03:40:40;35.67;;;18.63;;
55222;SDS011;41090;48.632;12.428;2024-01-15T03:43:05;35.87;;;18.80;;
55222;SDS011;41090;48.632;12.428;2024-01-15T03:45:30;32.67;;;17.80;;
55222;SDS011;41090;48.632;12.428;2024-01-15T03:47:56;32.10;;;18.77;;
55222;SDS011;41090;48.632;12.428;2024-01-15T03:50:22;35.43;;;18.30;;
55222;SDS011;41090;48.632;12.428;2024-01-15T03:52:47;33.23;;;18.30;;
55222;SDS011;41090;48.632;12.428;2024-01-15T03:55:12;32.80;;;19.13;;
55222;SDS011;41090;48.632;12.428;2024-01-15T03:57:38;32.50;;;18.27;;
55222;SDS011;41090;48.632;12.428;2024-01-15T04:00:06;30.43;;;17.13;;
55222;SDS011;41090;48.632;12.428;2024-01-15T04:02:34;28.03;;;16.77;;
55222;SDS011;41090;48.632;12.428;2024-01-15T04:04:59;29.53;;;17.50;;
55222;SDS011;41090;48.632;12.428;2024-01-15T04:07:24;29.97;;;17.23;;
55222;SDS011;41090;48.632;12.428;2024-01-15T04:09:49;30.67;;;17.53;;
55222;SDS011;41090;48.632;12.428;2024-01-15T04:12:15;34.30;;;17.57;;
55222;SDS011;41090;48.632;12.428;2024-01-15T04:14:40;29.63;;;15.80;;
55222;SDS011;41090;48.632;12.428;2024-01-15T04:17:05;27.70;;;16.47;;
55222;SDS011;41090;48.632;12.428;2024-01-15T04:19:30;29.80;;;16.67;;
55222;SDS011;41090;48.632;12.428;2024-01-15T04:21:56;33.10;;;17.40;;
55222;SDS011;41090;48.632;12.428;2024-01-15T04:24:21;31.23;;;16.97;;
55222;SDS011;41090;48.632;12.428;2024-01-15T04:26:46;27.97;;;16.40;;
55222;SDS011;41090;48.632;12.428;2024-01-15T04:29:11;29.17;;;16.83;;
55222;SDS011;41090;48.632;12.428;2024-01-15T04:31:37;27.07;;;16.00;;
55222;SDS011;41090;48.632;12.428;2024-01-15T04:34:02;29.50;;;16.23;;
55222;SDS011;41090;48.632;12.428;2024-01-15T04:36:27;28.17;;;15.83;;
55222;SDS011;41090;48.632;12.428;2024-01-15T04:38:53;27.00;;;15.77;;
55222;SDS011;41090;48.632;12.428;2024-01-15T04:41:18;27.97;;;15.77;;
55222;SDS011;41090;48.632;12.428;2024-01-15T04:43:43;28.30;;;16.90;;
55222;SDS011;41090;48.632;12.428;2024-01-15T04:46:08;28.47;;;16.43;;
55222;SDS011;41090;48.632;12.428;2024-01-15T04:48:34;27.57;;;15.80;;
55222;SDS011;41090;48.632;12.428;2024-01-15T04:51:00;27.73;;;16.10;;
55222;SDS011;41090;48.632;12.428;2024-01-15T04:53:25;25.43;;;15.63;;
55222;SDS011;41090;48.632;12.428;2024-01-15T04:55:50;24.97;;;15.07;;
55222;SDS011;41090;48.632;12.428;2024-01-15T04:58:15;23.67;;;14.83;;
55222;SDS011;41090;48.632;12.428;2024-01-15T05:00:41;25.67;;;15.00;;
55222;SDS011;41090;48.632;12.428;2024-01-15T05:03:06;23.87;;;14.60;;
55222;SDS011;41090;48.632;12.428;2024-01-15T05:05:31;27.97;;;15.63;;
55222;SDS011;41090;48.632;12.428;2024-01-15T05:07:56;26.23;;;15.73;;
55222;SDS011;41090;48.632;12.428;2024-01-15T05:10:21;23.97;;;13.97;;
55222;SDS011;41090;48.632;12.428;2024-01-15T05:12:48;21.90;;;14.33;;
55222;SDS011;41090;48.632;12.428;2024-01-15T05:15:13;23.43;;;14.23;;
55222;SDS011;41090;48.632;12.428;2024-01-15T05:17:38;23.77;;;13.43;;
55222;SDS011;41090;48.632;12.428;2024-01-15T05:20:05;19.90;;;12.60;;
55222;SDS011;41090;48.632;12.428;2024-01-15T05:22:30;21.80;;;13.33;;
55222;SDS011;41090;48.632;12.428;2024-01-15T05:24:56;20.33;;;12.60;;
55222;SDS011;41090;48.632;12.428;2024-01-15T05:27:22;23.37;;;13.13;;
55222;SDS011;41090;48.632;12.428;2024-01-15T05:29:47;22.00;;;13.50;;
55222;SDS011;41090;48.632;12.428;2024-01-15T05:32:12;21.53;;;12.60;;
55222;SDS011;41090;48.632;12.428;2024-01-15T05:34:38;18.43;;;12.03;;
55222;SDS011;41090;48.632;12.428;2024-01-15T05:37:03;20.70;;;12.83;;
55222;SDS011;41090;48.632;12.428;2024-01-15T05:39:28;21.20;;;13.00;;
55222;SDS011;41090;48.632;12.428;2024-01-15T05:41:53;21.70;;;12.40;;
55222;SDS011;41090;48.632;12.428;2024-01-15T05:44:19;22.83;;;13.27;;
55222;SDS011;41090;48.632;12.428;2024-01-15T05:46:44;17.50;;;11.77;;
55222;SDS011;41090;48.632;12.428;2024-01-15T05:49:09;19.43;;;12.40;;
55222;SDS011;41090;48.632;12.428;2024-01-15T05:51:34;20.23;;;11.50;;
55222;SDS011;41090;48.632;12.428;2024-01-15T05:54:00;19.37;;;12.30;;
55222;SDS011;41090;48.632;12.428;2024-01-15T05:56:25;18.53;;;12.10;;
55222;SDS011;41090;48.632;12.428;2024-01-15T05:58:50;18.57;;;12.50;;
55222;SDS011;41090;48.632;12.428;2024-01-15T06:01:15;18.77;;;11.83;;
55222;SDS011;41090;48.632;12.428;2024-01-15T06:03:41;18.47;;;11.40;;
55222;SDS011;41090;48.632;12.428;2024-01-15T06:06:06;25.47;;;15.97;;
55222;SDS011;41090;48.632;12.428;2024-01-15T06:08:33;18.10;;;11.03;;
55222;SDS011;41090;48.632;12.428;2024-01-15T06:10:58;17.13;;;11.47;;
55222;SDS011;41090;48.632;12.428;2024-01-15T06:13:23;15.33;;;10.50;;
55222;SDS011;41090;48.632;12.428;2024-01-15T06:15:48;17.90;;;11.53;;
55222;SDS011;41090;48.632;12.428;2024-01-15T06:18:14;16.53;;;10.33;;
55222;SDS011;41090;48.632;12.428;2024-01-15T06:20:39;15.17;;;10.30;;
55222;SDS011;41090;48.632;12.428;2024-01-15T06:23:04;14.90;;;9.40;;
55222;SDS011;41090;48.632;12.428;2024-01-15T06:25:29;15.50;;;10.10;;
55222;SDS011;41090;48.632;12.428;2024-01-15T06:27:55;15.83;;;10.27;;
55222;SDS011;41090;48.632;12.428;2024-01-15T06:30:20;15.83;;;9.90;;
55222;SDS011;41090;48.632;12.428;2024-01-15T06:32:45;14.30;;;9.50;;
55222;SDS011;41090;48.632;12.428;2024-01-15T06:35:10;15.63;;;9.87;;
55222;SDS011;41090;48.632;12.428;2024-01-15T06:37:36;15.53;;;10.10;;
55222;SDS011;41090;48.632;12.428;2024-01-15T06:40:02;13.50;;;9.83;;
55222;SDS011;41090;48.632;12.428;2024-01-15T06:42:28;13.20;;;9.10;;
55222;SDS011;41090;48.632;12.428;2024-01-15T06:44:53;14.33;;;9.53;;
55222;SDS011;41090;48.632;12.428;2024-01-15T06:47:18;14.20;;;9.40;;
55222;SDS011;41090;48.632;12.428;2024-01-15T06:49:43;13.50;;;9.30;;
55222;SDS011;41090;48.632;12.428;2024-01-15T06:52:09;12.80;;;9.03;;
55222;SDS011;41090;48.632;12.428;2024-01-15T06:54:34;16.43;;;9.90;;
55222;SDS011;41090;48.632;12.428;2024-01-15T06:56:59;13.70;;;8.90;;
55222;SDS011;41090;48.632;12.428;2024-01-15T06:59:24;13.17;;;8.10;;
55222;SDS011;41090;48.632;12.428;2024-01-15T07:01:50;11.13;;;8.20;;
55222;SDS011;41090;48.632;12.428;2024-01-15T07:04:15;10.13;;;7.67;;
55222;SDS011;41090;48.632;12.428;2024-01-15T07:06:40;11.83;;;8.23;;
55222;SDS011;41090;48.632;12.428;2024-01-15T07:09:06;10.60;;;7.93;;
55222;SDS011;41090;48.632;12.428;2024-01-15T07:11:31;11.20;;;7.80;;
55222;SDS011;41090;48.632;12.428;2024-01-15T07:13:56;10.33;;;7.33;;
55222;SDS011;41090;48.632;12.428;2024-01-15T07:16:21;11.40;;;7.73;;
55222;SDS011;41090;48.632;12.428;2024-01-15T07:18:46;11.07;;;7.57;;
55222;SDS011;41090;48.632;12.428;2024-01-15T07:21:12;10.17;;;7.10;;
55222;SDS011;41090;48.632;12.428;2024-01-15T07:23:37;12.00;;;7.40;;
55222;SDS011;41090;48.632;12.428;2024-01-15T07:26:02;9.17;;;6.97;;
55222;SDS011;41090;48.632;12.428;2024-01-15T07:28:31;8.77;;;6.37;;
55222;SDS011;41090;48.632;12.428;2024-01-15T07:30:56;10.23;;;7.23;;
55222;SDS011;41090;48.632;12.428;2024-01-15T07:33:21;9.20;;;6.60;;
55222;SDS011;41090;48.632;12.428;2024-01-15T07:35:47;9.80;;;6.80;;
55222;SDS011;41090;48.632;12.428;2024-01-15T07:38:12;9.43;;;7.20;;
55222;SDS011;41090;48.632;12.428;2024-01-15T07:40:37;8.87;;;6.80;;
55222;SDS011;41090;48.632;12.428;2024-01-15T07:43:02;9.07;;;6.67;;
55222;SDS011;41090;48.632;12.428;2024-01-15T07:45:28;9.07;;;6.23;;
55222;SDS011;41090;48.632;12.428;2024-01-15T07:47:53;9.70;;;6.87;;
55222;SDS011;41090;48.632;12.428;2024-01-15T07:50:18;9.30;;;6.77;;
55222;SDS011;41090;48.632;12.428;2024-01-15T07:52:43;8.87;;;6.50;;
55222;SDS011;41090;48.632;12.428;2024-01-15T07:55:09;10.07;;;6.23;;
55222;SDS011;41090;48.632;12.428;2024-01-15T07:57:34;9.10;;;6.87;;
55222;SDS011;41090;48.632;12.428;2024-01-15T08:00:00;9.20;;;6.57;;
55222;SDS011;41090;48.632;12.428;2024-01-15T08:02:26;9.43;;;6.83;;
55222;SDS011;41090;48.632;12.428;2024-01-15T08:04:51;9.57;;;6.43;;
55222;SDS011;41090;48.632;12.428;2024-01-15T08:07:17;10.60;;;6.87;;
55222;SDS011;41090;48.632;12.428;2024-01-15T08:09:42;10.13;;;6.20;;
55222;SDS011;41090;48.632;12.428;2024-01-15T08:12:08;9.03;;;6.27;;
55222;SDS011;41090;48.632;12.428;2024-01-15T08:14:35;9.07;;;6.30;;
55222;SDS011;41090;48.632;12.428;2024-01-15T08:17:00;10.17;;;6.60;;
55222;SDS011;41090;48.632;12.428;2024-01-15T08:19:26;10.00;;;6.60;;
55222;SDS011;41090;48.632;12.428;2024-01-15T08:21:51;9.00;;;6.67;;
55222;SDS011;41090;48.632;12.428;2024-01-15T08:24:17;8.67;;;6.53;;
55222;SDS011;41090;48.632;12.428;2024-01-15T08:26:42;9.53;;;6.63;;
55222;SDS011;41090;48.632;12.428;2024-01-15T08:29:07;9.30;;;6.83;;
55222;SDS011;41090;48.632;12.428;2024-01-15T08:31:33;8.70;;;6.80;;
55222;SDS011;41090;48.632;12.428;2024-01-15T08:33:58;10.43;;;7.00;;
55222;SDS011;41090;48.632;12.428;2024-01-15T08:36:24;9.77;;;6.87;;
55222;SDS011;41090;48.632;12.428;2024-01-15T08:38:49;8.40;;;6.37;;
55222;SDS011;41090;48.632;12.428;2024-01-15T08:41:15;8.97;;;6.40;;
55222;SDS011;41090;48.632;12.428;2024-01-15T08:43:40;8.67;;;6.50;;
55222;SDS011;41090;48.632;12.428;2024-01-15T08:46:05;8.87;;;6.20;;
55222;SDS011;41090;48.632;12.428;2024-01-15T08:48:31;8.67;;;6.40;;
55222;SDS011;41090;48.632;12.428;2024-01-15T08:50:56;7.80;;;5.83;;
55222;SDS011;41090;48.632;12.428;2024-01-15T08:53:21;9.20;;;5.83;;
55222;SDS011;41090;48.632;12.428;2024-01-15T08:55:47;9.63;;;6.23;;
55222;SDS011;41090;48.632;12.428;2024-01-15T08:58:12;18.00;;;12.43;;
55222;SDS011;41090;48.632;12.428;2024-01-15T09:00:38;11.53;;;8.13;;
55222;SDS011;41090;48.632;12.428;2024-01-15T09:03:03;11.03;;;7.93;;
55222;SDS011;41090;48.632;12.428;2024-01-15T09:05:28;8.60;;;7.20;;
55222;SDS011;41090;48.632;12.428;2024-01-15T09:07:54;12.43;;;9.00;;
55222;SDS011;41090;48.632;12.428;2024-01-15T09:10:19;8.37;;;6.90;;
55222;SDS011;41090;48.632;12.428;2024-01-15T09:12:45;8.33;;;6.50;;
55222;SDS011;41090;48.632;12.428;2024-01-15T09:15:10;8.37;;;6.57;;
55222;SDS011;41090;48.632;12.428;2024-01-15T09:17:35;10.33;;;6.57;;
55222;SDS011;41090;48.632;12.428;2024-01-15T09:20:01;7.40;;;6.00;;
55222;SDS011;41090;48.632;12.428;2024-01-15T09:22:26;8.40;;;6.13;;
55222;SDS011;41090;48.632;12.428;2024-01-15T09:24:52;8.20;;;6.07;;
55222;SDS011;41090;48.632;12.428;2024-01-15T09:27:17;9.77;;;6.17;;
55222;SDS011;41090;48.632;12.428;2024-01-15T09:29:42;7.53;;;5.90;;
55222;SDS011;41090;48.632;12.428;2024-01-15T09:32:10;9.47;;;6.27;;
55222;SDS011;41090;48.632;12.428;2024-01-15T09:34:35;9.43;;;6.50;;
55222;SDS011;41090;48.632;12.428;2024-01-15T09:37:01;8.70;;;6.10;;
55222;SDS011;41090;48.632;12.428;2024-01-15T09:39:26;8.57;;;6.20;;
55222;SDS011;41090;48.632;12.428;2024-01-15T09:41:52;8.43;;;5.53;;
55222;SDS011;41090;48.632;12.428;2024-01-15T09:44:18;7.83;;;6.17;;
55222;SDS011;41090;48.632;12.428;2024-01-15T09:46:44;7.00;;;6.00;;
55222;SDS011;41090;48.632;12.428;2024-01-15T09:49:10;7.47;;;5.63;;
55222;SDS011;41090;48.632;12.428;2024-01-15T09:51:35;7.50;;;5.63;;
55222;SDS011;41090;48.632;12.428;2024-01-15T09:54:01;8.27;;;5.60;;
55222;SDS011;41090;48.632;12.428;2024-01-15T09:56:27;11.93;;;9.27;;
55222;SDS011;41090;48.632;12.428;2024-01-15T09:58:52;6.73;;;5.33;;
55222;SDS011;41090;48.632;12.428;2024-01-15T10:01:17;8.97;;;5.53;;
55222;SDS011;41090;48.632;12.428;2024-01-15T10:03:44;8.77;;;4.90;;
55222;SDS011;41090;48.632;12.428;2024-01-15T10:06:10;5.67;;;4.50;;
55222;SDS011;41090;48.632;12.428;2024-01-15T10:08:36;5.90;;;4.73;;
55222;SDS011;41090;48.632;12.428;2024-01-15T10:11:01;7.03;;;4.63;;
55222;SDS011;41090;48.632;12.428;2024-01-15T10:13:27;6.47;;;4.73;;
55222;SDS011;41090;48.632;12.428;2024-01-15T10:15:53;6.60;;;4.70;;
55222;SDS011;41090;48.632;12.428;2024-01-15T10:18:18;7.20;;;5.00;;
55222;SDS011;41090;48.632;12.428;2024-01-15T10:20:44;6.47;;;4.67;;
55222;SDS011;41090;48.632;12.428;2024-01-15T10:23:09;7.40;;;4.80;;
55222;SDS011;41090;48.632;12.428;2024-01-15T10:25:35;7.07;;;4.73;;
55222;SDS011;41090;48.632;12.428;2024-01-15T10:28:01;5.87;;;4.50;;
55222;SDS011;41090;48.632;12.428;2024-01-15T10:30:26;8.03;;;4.80;;
55222;SDS011;41090;48.632;12.428;2024-01-15T10:32:58;6.80;;;4.93;;
55222;SDS011;41090;48.632;12.428;2024-01-15T10:35:26;6.43;;;4.63;;
55222;SDS011;41090;48.632;12.428;2024-01-15T10:37:51;7.17;;;4.87;;
55222;SDS011;41090;48.632;12.428;2024-01-15T10:40:17;6.87;;;4.83;;
55222;SDS011;41090;48.632;12.428;2024-01-15T10:42:43;9.00;;;4.87;;
55222;SDS011;41090;48.632;12.428;2024-01-15T10:45:09;8.03;;;5.33;;
55222;SDS011;41090;48.632;12.428;2024-01-15T10:47:34;7.17;;;4.70;;
55222;SDS011;41090;48.632;12.428;2024-01-15T10:50:00;8.23;;;4.83;;
55222;SDS011;41090;48.632;12.428;2024-01-15T10:52:26;5.77;;;5.13;;
55222;SDS011;41090;48.632;12.428;2024-01-15T10:54:52;6.73;;;4.80;;
55222;SDS011;41090;48.632;12.428;2024-01-15T10:57:18;5.67;;;4.20;;
55222;SDS011;41090;48.632;12.428;2024-01-15T10:59:43;5.70;;;4.70;;
55222;SDS011;41090;48.632;12.428;2024-01-15T11:02:08;6.00;;;4.70;;
55222;SDS011;41090;48.632;12.428;2024-01-15T11:04:35;5.70;;;4.00;;
55222;SDS011;41090;48.632;12.428;2024-01-15T11:07:01;5.20;;;3.90;;
55222;SDS011;41090;48.632;12.428;2024-01-15T11:09:28;6.50;;;4.53;;
55222;SDS011;41090;48.632;12.428;2024-01-15T11:12:11;5.60;;;3.97;;
55222;SDS011;41090;48.632;12.428;2024-01-15T11:14:46;5.57;;;4.13;;
55222;SDS011;41090;48.632;12.428;2024-01-15T11:17:12;5.87;;;4.27;;
55222;SDS011;41090;48.632;12.428;2024-01-15T11:22:10;5.73;;;4.00;;
55222;SDS011;41090;48.632;12.428;2024-01-15T11:24:37;4.83;;;4.03;;
55222;SDS011;41090;48.632;12.428;2024-01-15T11:27:03;6.10;;;4.77;;
55222;SDS011;41090;48.632;12.428;2024-01-15T11:37:13;5.30;;;4.07;;
55222;SDS011;41090;48.632;12.428;2024-01-15T11:42:13;5.53;;;4.10;;
55222;SDS011;41090;48.632;12.428;2024-01-15T11:44:50;6.50;;;4.17;;
55222;SDS011;41090;48.632;12.428;2024-01-15T11:47:16;5.60;;;3.90;;
55222;SDS011;41090;48.632;12.428;2024-01-15T11:50:04;5.77;;;4.30;;
55222;SDS011;41090;48.632;12.428;2024-01-15T11:55:11;9.80;;;3.67;;
55222;SDS011;41090;48.632;12.428;2024-01-15T11:57:48;5.50;;;3.90;;
55222;SDS011;41090;48.632;12.428;2024-01-15T12:00:14;5.63;;;3.63;;
55222;SDS011;41090;48.632;12.428;2024-01-15T12:02:40;9.07;;;7.53;;
55222;SDS011;41090;48.632;12.428;2024-01-15T12:05:09;5.17;;;4.07;;
55222;SDS011;41090;48.632;12.428;2024-01-15T12:07:37;6.17;;;5.67;;
55222;SDS011;41090;48.632;12.428;2024-01-15T12:10:02;6.80;;;6.20;;
55222;SDS011;41090;48.632;12.428;2024-01-15T12:15:04;5.30;;;4.80;;
55222;SDS011;41090;48.632;12.428;2024-01-15T12:17:30;8.50;;;6.93;;
55222;SDS011;41090;48.632;12.428;2024-01-15T12:19:56;8.67;;;7.77;;
55222;SDS011;41090;48.632;12.428;2024-01-15T12:22:21;6.40;;;5.03;;
55222;SDS011;41090;48.632;12.428;2024-01-15T12:24:50;5.70;;;4.97;;
55222;SDS011;41090;48.632;12.428;2024-01-15T12:27:15;13.50;;;12.10;;
55222;SDS011;41090;48.632;12.428;2024-01-15T12:29:41;5.17;;;3.90;;
55222;SDS011;41090;48.632;12.428;2024-01-15T12:32:06;5.03;;;3.40;;
55222;SDS011;41090;48.632;12.428;2024-01-15T12:34:33;4.77;;;3.90;;
55222;SDS011;41090;48.632;12.428;2024-01-15T12:36:58;5.23;;;3.70;;
55222;SDS011;41090;48.632;12.428;2024-01-15T12:39:26;4.23;;;3.63;;
55222;SDS011;41090;48.632;12.428;2024-01-15T12:41:52;5.87;;;3.90;;
55222;SDS011;41090;48.632;12.428;2024-01-15T12:44:17;4.90;;;3.87;;
55222;SDS011;41090;48.632;12.428;2024-01-15T12:46:43;3.83;;;3.43;;
55222;SDS011;41090;48.632;12.428;2024-01-15T12:49:08;4.93;;;3.67;;
55222;SDS011;41090;48.632;12.428;2024-01-15T12:51:36;5.07;;;3.70;;
55222;SDS011;41090;48.632;12.428;2024-01-15T12:54:02;5.67;;;3.93;;
55222;SDS011;41090;48.632;12.428;2024-01-15T12:56:28;5.27;;;3.43;;
55222;SDS011;41090;48.632;12.428;2024-01-15T12:58:53;5.20;;;4.43;;
55222;SDS011;41090;48.632;12.428;2024-01-15T13:01:19;4.47;;;3.33;;
55222;SDS011;41090;48.632;12.428;2024-01-15T13:03:44;5.27;;;3.70;;
55222;SDS011;41090;48.632;12.428;2024-01-15T13:06:09;4.43;;;3.60;;
55222;SDS011;41090;48.632;12.428;2024-01-15T13:08:36;4.33;;;3.80;;
55222;SDS011;41090;48.632;12.428;2024-01-15T13:11:01;5.27;;;4.00;;
55222;SDS011;41090;48.632;12.428;2024-01-15T13:13:26;7.00;;;4.20;;
55222;SDS011;41090;48.632;12.428;2024-01-15T13:15:52;5.70;;;4.13;;
55222;SDS011;41090;48.632;12.428;2024-01-15T13:18:17;5.73;;;4.00;;
55222;SDS011;41090;48.632;12.428;2024-01-15T13:20:42;9.90;;;9.00;;
55222;SDS011;41090;48.632;12.428;2024-01-15T13:23:08;7.30;;;4.30;;
55222;SDS011;41090;48.632;12.428;2024-01-15T13:25:34;4.33;;;3.93;;
55222;SDS011;41090;48.632;12.428;2024-01-15T13:28:03;5.47;;;3.90;;
55222;SDS011;41090;48.632;12.428;2024-01-15T13:30:29;4.17;;;3.53;;
55222;SDS011;41090;48.632;12.428;2024-01-15T13:32:55;4.40;;;3.73;;
55222;SDS011;41090;48.632;12.428;2024-01-15T13:35:21;5.00;;;3.60;;
55222;SDS011;41090;48.632;12.428;2024-01-15T13:37:47;3.97;;;3.10;;
55222;SDS011;41090;48.632;12.428;2024-01-15T13:40:12;4.30;;;3.27;;
55222;SDS011;41090;48.632;12.428;2024-01-15T13:42:41;4.00;;;3.33;;
55222;SDS011;41090;48.632;12.428;2024-01-15T13:45:06;3.87;;;3.37;;
55222;SDS011;41090;48.632;12.428;2024-01-15T13:47:32;4.40;;;3.30;;
55222;SDS011;41090;48.632;12.428;2024-01-15T13:49:57;4.33;;;3.33;;
55222;SDS011;41090;48.632;12.428;2024-01-15T13:52:23;4.13;;;3.30;;
55222;SDS011;41090;48.632;12.428;2024-01-15T13:54:49;3.80;;;3.40;;
55222;SDS011;41090;48.632;12.428;2024-01-15T13:57:14;3.50;;;3.20;;
55222;SDS011;41090;48.632;12.428;2024-01-15T13:59:39;4.60;;;3.30;;
55222;SDS011;41090;48.632;12.428;2024-01-15T14:02:05;5.43;;;3.87;;
55222;SDS011;41090;48.632;12.428;2024-01-15T14:04:30;5.00;;;3.53;;
55222;SDS011;41090;48.632;12.428;2024-01-15T14:06:55;3.93;;;3.47;;
55222;SDS011;41090;48.632;12.428;2024-01-15T14:09:21;3.97;;;3.33;;
55222;SDS011;41090;48.632;12.428;2024-01-15T14:11:46;3.57;;;3.20;;
55222;SDS011;41090;48.632;12.428;2024-01-15T14:14:12;4.97;;;3.70;;
55222;SDS011;41090;48.632;12.428;2024-01-15T14:16:37;5.03;;;3.60;;
55222;SDS011;41090;48.632;12.428;2024-01-15T14:19:02;6.00;;;3.60;;
55222;SDS011;41090;48.632;12.428;2024-01-15T14:21:27;3.70;;;3.10;;
55222;SDS011;41090;48.632;12.428;2024-01-15T14:23:53;4.40;;;3.77;;
55222;SDS011;41090;48.632;12.428;2024-01-15T14:26:18;5.97;;;3.50;;
55222;SDS011;41090;48.632;12.428;2024-01-15T14:28:43;6.03;;;3.30;;
55222;SDS011;41090;48.632;12.428;2024-01-15T14:31:08;4.63;;;3.40;;
55222;SDS011;41090;48.632;12.428;2024-01-15T14:33:34;3.53;;;3.20;;
55222;SDS011;41090;48.632;12.428;2024-01-15T14:35:59;5.30;;;3.13;;
55222;SDS011;41090;48.632;12.428;2024-01-15T14:38:25;5.33;;;3.70;;
55222;SDS011;41090;48.632;12.428;2024-01-15T14:40:50;5.57;;;4.00;;
55222;SDS011;41090;48.632;12.428;2024-01-15T14:43:15;8.00;;;3.60;;
55222;SDS011;41090;48.632;12.428;2024-01-15T14:45:40;3.70;;;3.30;;
55222;SDS011;41090;48.632;12.428;2024-01-15T14:48:05;5.03;;;3.63;;
55222;SDS011;41090;48.632;12.428;2024-01-15T14:50:31;4.47;;;3.80;;
55222;SDS011;41090;48.632;12.428;2024-01-15T14:52:56;5.20;;;3.80;;
55222;SDS011;41090;48.632;12.428;2024-01-15T14:55:21;6.97;;;4.20;;
55222;SDS011;41090;48.632;12.428;2024-01-15T14:57:48;4.77;;;4.20;;
55222;SDS011;41090;48.632;12.428;2024-01-15T15:00:14;4.63;;;4.20;;
55222;SDS011;41090;48.632;12.428;2024-01-15T15:02:41;6.13;;;4.83;;
55222;SDS011;41090;48.632;12.428;2024-01-15T15:05:07;5.77;;;4.60;;
55222;SDS011;41090;48.632;12.428;2024-01-15T15:07:32;6.30;;;4.73;;
55222;SDS011;41090;48.632;12.428;2024-01-15T15:09:58;6.30;;;4.70;;
55222;SDS011;41090;48.632;12.428;2024-01-15T15:12:23;6.63;;;5.00;;
55222;SDS011;41090;48.632;12.428;2024-01-15T15:14:49;8.20;;;5.77;;
55222;SDS011;41090;48.632;12.428;2024-01-15T15:17:14;6.63;;;5.40;;
55222;SDS011;41090;48.632;12.428;2024-01-15T15:19:39;7.93;;;5.97;;
55222;SDS011;41090;48.632;12.428;2024-01-15T15:22:05;7.03;;;5.77;;
55222;SDS011;41090;48.632;12.428;2024-01-15T15:24:31;9.17;;;5.77;;
55222;SDS011;41090;48.632;12.428;2024-01-15T15:26:56;8.07;;;5.93;;
55222;SDS011;41090;48.632;12.428;2024-01-15T15:29:21;9.33;;;6.10;;
55222;SDS011;41090;48.632;12.428;2024-01-15T15:31:48;8.20;;;5.70;;
55222;SDS011;41090;48.632;12.428;2024-01-15T15:34:13;7.33;;;6.43;;
55222;SDS011;41090;48.632;12.428;2024-01-15T15:36:39;9.73;;;5.97;;
55222;SDS011;41090;48.632;12.428;2024-01-15T15:39:04;7.10;;;5.93;;
55222;SDS011;41090;48.632;12.428;2024-01-15T15:41:29;10.70;;;6.10;;
55222;SDS011;41090;48.632;12.428;2024-01-15T15:43:54;9.50;;;7.33;;
55222;SDS011;41090;48.632;12.428;2024-01-15T15:46:20;9.20;;;7.00;;
55222;SDS011;41090;48.632;12.428;2024-01-15T15:48:45;10.50;;;7.70;;
55222;SDS011;41090;48.632;12.428;2024-01-15T15:51:10;8.83;;;6.63;;
55222;SDS011;41090;48.632;12.428;2024-01-15T15:53:35;10.17;;;8.33;;
55222;SDS011;41090;48.632;12.428;2024-01-15T15:56:00;9.83;;;7.47;;
55222;SDS011;41090;48.632;12.428;2024-01-15T15:58:26;9.80;;;7.17;;
55222;SDS011;41090;48.632;12.428;2024-01-15T16:00:51;11.60;;;7.60;;
55222;SDS011;41090;48.632;12.428;2024-01-15T16:03:16;10.77;;;8.17;;
55222;SDS011;41090;48.632;12.428;2024-01-15T16:05:41;10.63;;;7.47;;
55222;SDS011;41090;48.632;12.428;2024-01-15T16:08:07;10.33;;;7.23;;
55222;SDS011;41090;48.632;12.428;2024-01-15T16:10:32;11.73;;;7.90;;
55222;SDS011;41090;48.632;12.428;2024-01-15T16:12:57;10.53;;;7.50;;
55222;SDS011;41090;48.632;12.428;2024-01-15T16:15:22;8.57;;;7.37;;
55222;SDS011;41090;48.632;12.428;2024-01-15T16:17:51;8.90;;;6.90;;
55222;SDS011;41090;48.632;12.428;2024-01-15T16:20:17;8.33;;;7.03;;
55222;SDS011;41090;48.632;12.428;2024-01-15T16:22:42;10.07;;;6.80;;
55222;SDS011;41090;48.632;12.428;2024-01-15T16:25:08;8.40;;;6.60;;
55222;SDS011;41090;48.632;12.428;2024-01-15T16:27:33;9.23;;;6.00;;
55222;SDS011;41090;48.632;12.428;2024-01-15T16:29:59;9.13;;;6.87;;
55222;SDS011;41090;48.632;12.428;2024-01-15T16:32:24;8.13;;;6.17;;
55222;SDS011;41090;48.632;12.428;2024-01-15T16:34:49;7.77;;;6.33;;
55222;SDS011;41090;48.632;12.428;2024-01-15T16:37:15;8.87;;;6.47;;
55222;SDS011;41090;48.632;12.428;2024-01-15T16:39:40;8.30;;;7.07;;
55222;SDS011;41090;48.632;12.428;2024-01-15T16:42:05;8.97;;;6.33;;
55222;SDS011;41090;48.632;12.428;2024-01-15T16:44:33;9.43;;;6.63;;
55222;SDS011;41090;48.632;12.428;2024-01-15T16:46:58;8.60;;;6.63;;
55222;SDS011;41090;48.632;12.428;2024-01-15T16:49:25;8.07;;;6.20;;
55222;SDS011;41090;48.632;12.428;2024-01-15T16:51:51;9.87;;;6.80;;